Latest Weather Observations for Devonport Airport

IDT60801

Issued at 6:02 pm EST Saturday 27 May 2017 (issued every 30 minutes, with the page automatically refreshed every 10 minutes)

About weather observations | Map of weather stations | Latest weather observations for TAS | Other Formats
Station Details ID: 091126 Name: DEVONPORT AIRPORT Lat: -41.17 Lon: 146.43 Height: 8.0 m
Data from the previous 72 hours. | See also: Recent months at Devonport Airport
Date/Time
EST
Temp
°C
App
Temp
°C
Dew
Point
°C
Rel
Hum
%
Delta-T
°C
Wind Press
QNH
hPa
Press
MSL
hPa
Rain since
9am
mm
Dir  Spd
km/h
Gust
km/h
Spd
kts
Gust
kts
27/05:30pm 15.9 9.1 12.1 78 2.1 NNW 39 56 21 30 1008.5 1008.5 0.2
27/05:00pm 15.6 9.3 12.4 81 1.8 NNW 37 46 20 25 1008.8 1008.8 0.2
27/04:30pm 15.5 10.0 12.6 83 1.6 NNW 33 46 18 25 1009.1 1009.1 0.2
27/04:00pm 15.6 10.3 12.5 82 1.7 NW 32 41 17 22 1009.4 1009.4 0.2
27/03:30pm 15.5 10.2 12.4 82 1.7 NW 32 41 17 22 1009.5 1009.5 0.2
27/03:00pm 15.6 11.1 12.7 83 1.6 NW 28 41 15 22 1009.8 1009.8 0.2
27/02:30pm 15.6 11.6 12.9 84 1.5 NW 26 35 14 19 1010.1 1010.1 0.2
27/02:00pm 15.8 10.4 12.9 83 1.6 NNW 33 41 18 22 1010.3 1010.3 0.2
27/01:30pm 15.9 9.8 13.0 83 1.6 NNW 37 48 20 26 1010.6 1010.6 0.2
27/01:00pm 16.0 10.8 13.3 84 1.5 NNW 33 44 18 24 1011.1 1011.1 0.2
27/12:30pm 16.8 11.0 13.9 83 1.6 NNW 37 46 20 25 1011.7 1011.7 0.2
27/12:00pm 16.1 10.7 13.8 86 1.3 NNW 35 46 19 25 1012.2 1012.2 0.2
27/11:30am 15.7 9.8 13.5 87 1.2 N 37 46 20 25 1012.8 1012.9 0.2
27/11:28am 15.8 10.3 13.6 87 1.2 N 35 46 19 25 1012.8 1012.9 0.2
27/11:00am 15.5 9.6 13.5 88 1.1 N 37 48 20 26 1013.3 1013.4 0.2
27/10:30am 15.6 10.0 13.4 87 1.2 N 35 46 19 25 1013.8 1013.9 0.2
27/10:15am 15.3 10.2 13.7 90 0.9 N 33 41 18 22 1014.0 1014.1 0.2
27/10:01am 15.3 9.8 13.5 89 1.0 N 35 43 19 23 1014.1 1014.2 0.2
27/10:00am 15.3 9.8 13.5 89 1.0 N 35 43 19 23 1014.0 1014.1 0.2
27/09:30am 14.6 8.9 13.0 90 0.9 N 35 46 19 25 1014.3 1014.4 0.2
27/09:27am 14.6 9.3 13.1 91 0.8 N 33 41 18 22 1014.3 1014.4 0.2
27/09:00am 14.7 9.4 12.4 86 1.3 N 32 39 17 21 1014.6 1014.7 0.0
27/08:30am 14.6 10.2 11.6 82 1.6 N 26 32 14 17 1015.0 1015.1 0.0
27/08:00am 14.8 10.2 9.8 72 2.6 NNW 24 30 13 16 1015.3 1015.4 0.0
27/07:30am 14.5 8.9 8.7 68 2.9 NW 28 33 15 18 1015.3 1015.4 0.0
27/07:00am 14.3 8.4 9.1 71 2.6 NW 30 39 16 21 1015.4 1015.5 0.0
27/06:30am 14.3 8.6 9.9 75 2.3 NNW 30 37 16 20 1015.3 1015.4 0.0
27/06:00am 14.5 8.9 10.3 76 2.2 NNW 30 35 16 19 1015.2 1015.3 0.0
27/05:30am 14.3 8.8 10.5 78 2.0 NNW 30 37 16 20 1015.4 1015.5 0.0
27/05:00am 14.2 9.3 11.2 82 1.6 NNW 28 35 15 19 1015.6 1015.7 0.0
27/04:30am 13.4 10.9 9.8 79 1.8 N 13 19 7 10 1016.0 1016.1 0.0
27/04:00am 13.6 9.6 9.1 74 2.3 N 20 26 11 14 1016.5 1016.6 0.0
27/03:30am 13.4 9.3 8.7 73 2.4 N 20 26 11 14 1016.7 1016.8 0.0
27/03:00am 13.4 8.5 8.5 72 2.4 N 24 32 13 17 1017.2 1017.3 0.0
27/02:30am 13.0 8.2 7.5 69 2.7 N 22 28 12 15 1017.6 1017.7 0.0
27/02:00am 12.9 8.0 7.1 68 2.8 NNW 22 30 12 16 1017.8 1017.9 0.0
27/01:30am 9.6 7.6 7.2 85 1.1 SSW 7 9 4 5 1018.1 1018.1 0.0
27/01:00am 9.6 7.8 7.2 85 1.1 SSW 6 9 3 5 1018.6 1018.6 0.0
27/12:30am 9.6 7.7 7.7 88 0.9 SE 7 9 4 5 1018.7 1018.7 0.0
27/12:00am 9.9 7.7 7.7 86 1.1 SSE 9 11 5 6 1018.9 1018.9 0.0
 
Date/Time
EST
Temp
°C
App
Temp
°C
Dew
Point
°C
Rel
Hum
%
Delta-T
°C
Wind Press
QNH
hPa
Press
MSL
hPa
Rain since
9am
mm
Dir  Spd
km/h
Gust
km/h
Spd
kts
Gust
kts
26/11:30pm 9.8 7.5 7.4 85 1.1 SSE 9 13 5 7 1018.9 1018.9 0.0
26/11:00pm 9.8 8.1 7.4 85 1.1 SSE 6 11 3 6 1019.1 1019.1 0.0
26/10:30pm 10.1 9.1 7.3 83 1.3 SE 2 7 1 4 1019.5 1019.5 0.0
26/10:00pm 10.1 8.1 7.0 81 1.5 SE 7 9 4 5 1019.7 1019.7 0.0
26/09:30pm 10.1 8.7 7.2 82 1.4 SSE 4 7 2 4 1019.9 1019.9 0.0
26/09:00pm 11.2 8.9 5.7 69 2.5 SW 7 9 4 5 1019.7 1019.7 0.0
26/08:30pm 11.1 8.5 6.0 71 2.4 SW 9 11 5 6 1019.7 1019.7 0.0
26/08:00pm 11.0 8.2 6.9 76 1.9 SW 11 13 6 7 1019.7 1019.7 0.0
26/07:30pm 10.9 7.8 7.4 79 1.7 WSW 13 15 7 8 1019.6 1019.6 0.0
26/07:00pm 11.0 8.3 7.5 79 1.7 WSW 11 13 6 7 1019.5 1019.5 0.0
26/06:30pm 11.1 8.5 7.6 79 1.7 W 11 13 6 7 1019.4 1019.4 0.0
26/06:00pm 10.7 7.2 7.0 78 1.7 WSW 15 17 8 9 1019.2 1019.2 0.0
26/05:30pm 11.8 7.7 7.9 77 1.9 W 19 24 10 13 1018.9 1018.9 0.0
26/05:00pm 12.7 7.7 8.0 73 2.3 WNW 24 30 13 16 1018.7 1018.7 0.0
26/04:30pm 12.8 8.2 8.1 73 2.3 NW 22 30 12 16 1018.8 1018.8 0.0
26/04:00pm 13.3 8.3 8.0 70 2.6 WNW 24 32 13 17 1018.6 1018.6 0.0
26/03:30pm 13.5 8.6 8.4 71 2.5 NW 24 30 13 16 1018.5 1018.5 0.0
26/03:00pm 13.7 8.7 8.1 69 2.8 WNW 24 28 13 15 1018.6 1018.6 0.0
26/02:30pm 14.1 9.9 7.4 64 3.3 WNW 19 24 10 13 1018.8 1018.8 0.0
26/02:00pm 14.0 8.6 8.2 68 2.9 WNW 26 32 14 17 1018.9 1018.9 0.0
26/01:30pm 13.8 9.3 8.4 70 2.7 NW 22 30 12 16 1019.2 1019.2 0.0
26/01:00pm 14.1 9.7 7.6 65 3.2 WNW 20 28 11 15 1019.6 1019.6 0.0
26/12:30pm 14.0 9.6 7.5 65 3.2 W 20 28 11 15 1019.7 1019.7 0.0
26/12:00pm 13.9 9.6 7.2 64 3.3 W 19 24 10 13 1020.0 1020.0 0.0
26/11:30am 13.3 8.8 7.1 66 3.0 WNW 20 26 11 14 1020.4 1020.4 0.0
26/11:00am 12.9 8.5 6.7 66 3.0 W 19 24 10 13 1020.7 1020.7 0.0
26/10:30am 12.3 9.5 6.8 69 2.6 SW 11 17 6 9 1020.6 1020.6 0.0
26/10:00am 11.6 7.3 6.9 73 2.2 W 19 22 10 12 1020.7 1020.7 0.0
26/09:30am 10.8 7.6 6.7 76 1.9 WSW 13 20 7 11 1020.5 1020.5 0.0
26/09:00am 9.6 7.2 6.9 83 1.3 WSW 9 11 5 6 1020.3 1020.3 2.6
26/08:30am 8.4 5.4 6.0 85 1.1 WSW 11 13 6 7 1020.1 1020.1 2.6
26/08:00am 7.1 3.6 5.3 88 0.8 WSW 13 15 7 8 1019.8 1019.8 2.6
26/07:30am 6.5 2.5 4.8 89 0.7 WSW 15 20 8 11 1019.4 1019.4 2.6
26/07:00am 7.1 3.8 4.8 85 1.0 WSW 11 15 6 8 1019.0 1019.0 2.6
26/06:30am 6.0 1.9 4.2 88 0.8 WSW 15 17 8 9 1018.7 1018.7 2.6
26/06:00am 6.8 3.1 4.5 85 1.0 WSW 13 13 7 7 1018.3 1018.3 2.6
26/05:30am 7.6 4.9 5.7 88 0.9 SW 9 11 5 6 1017.6 1017.7 2.6
26/05:00am 7.0 3.8 5.2 88 0.8 WSW 11 13 6 7 1017.2 1017.3 2.6
26/04:30am 7.7 4.7 6.0 89 0.8 WSW 11 13 6 7 1016.9 1017.0 2.6
26/04:00am 6.5 2.5 4.7 88 0.8 W 15 17 8 9 1016.6 1016.7 2.6
26/03:30am 7.7 4.6 5.7 87 0.9 SW 11 15 6 8 1016.2 1016.3 2.6
26/03:00am 8.0 4.1 7.1 94 0.4 W 17 20 9 11 1016.2 1016.3 2.6
26/02:30am 7.4 4.5 6.3 93 0.5 WSW 11 15 6 8 1015.9 1016.0 2.6
26/02:00am 7.2 5.0 5.3 88 0.8 S 6 7 3 4 1015.8 1015.9 2.6
26/01:30am 8.8 6.4 6.8 87 0.9 S 9 13 5 7 1015.5 1015.6 2.6
26/01:00am 8.3 5.0 6.4 88 0.9 W 13 20 7 11 1015.2 1015.3 2.6
26/12:30am 9.8 5.6 7.4 85 1.1 W 19 22 10 12 1015.2 1015.3 2.6
26/12:00am 10.0 5.7 7.8 86 1.1 W 20 24 11 13 1015.0 1015.1 2.6
 
Date/Time
EST
Temp
°C
App
Temp
°C
Dew
Point
°C
Rel
Hum
%
Delta-T
°C
Wind Press
QNH
hPa
Press
MSL
hPa
Rain since
9am
mm
Dir  Spd
km/h
Gust
km/h
Spd
kts
Gust
kts
25/11:30pm 10.7 7.6 9.0 89 0.8 WSW 15 24 8 13 1014.6 1014.7 2.6
25/11:00pm 10.0 7.4 7.8 86 1.1 WSW 11 13 6 7 1014.2 1014.3 2.6
25/10:30pm 11.3 7.4 8.7 84 1.3 W 19 24 10 13 1014.1 1014.2 2.6
25/10:00pm 9.9 6.5 7.7 86 1.1 W 15 20 8 11 1014.0 1014.1 2.6
25/09:30pm 10.9 7.0 8.5 85 1.2 W 19 22 10 12 1013.7 1013.8 2.6
25/09:00pm 11.1 8.5 9.4 89 0.9 W 13 17 7 9 1013.3 1013.4 2.6
25/08:30pm 12.1 9.8 10.3 89 0.9 WSW 13 19 7 10 1013.0 1013.1 2.6
25/08:00pm 13.1 9.3 11.2 88 1.0 WNW 22 28 12 15 1012.7 1012.8 2.6
25/07:30pm 13.5 10.1 11.4 87 1.1 W 20 30 11 16 1012.5 1012.5 2.6
25/07:00pm 13.9 9.1 11.8 87 1.1 WNW 28 37 15 20 1012.3 1012.3 2.6
25/06:30pm 14.1 8.7 12.1 88 1.1 WNW 32 39 17 21 1012.3 1012.3 2.6
25/06:13pm 14.2 8.4 12.6 90 0.9 WNW 35 48 19 26 1012.2 1012.2 2.6
25/06:00pm 14.3 7.6 13.5 95 0.4 WNW 41 52 22 28 1012.3 1012.3 2.6
25/05:57pm 14.3 7.6 13.5 95 0.4 WNW 41 52 22 28 1012.2 1012.2 2.6
25/05:30pm 14.1 7.0 13.3 95 0.4 NW 43 59 23 32 1012.0 1012.0 2.0
25/05:29pm 14.2 7.4 13.2 94 0.6 NW 41 59 22 32 1011.9 1011.9 2.0
25/05:25pm 14.3 7.6 13.3 94 0.6 NW 41 54 22 29 1012.0 1012.0 2.0
25/05:00pm 14.1 8.8 13.1 94 0.6 NW 33 44 18 24 1012.2 1012.2 1.6
25/04:58pm 14.1 8.4 13.1 94 0.6 NW 35 44 19 24 1012.3 1012.3 1.6
25/04:40pm 13.5 9.8 12.7 95 0.4 WNW 24 32 13 17 1012.6 1012.6 1.6
25/04:30pm 13.6 8.7 12.5 93 0.6 WNW 30 41 16 22 1012.7 1012.8 0.8
25/04:22pm 13.7 8.7 12.3 91 0.8 WNW 30 35 16 19 1012.7 1012.8 0.6
25/04:00pm 14.5 8.9 11.5 82 1.6 WNW 32 41 17 22 1012.7 1012.8 0.6
25/03:41pm 14.3 8.4 12.3 88 1.1 NW 35 46 19 25 1012.8 1012.9 0.6
25/03:30pm 14.4 8.0 12.1 86 1.2 NW 37 48 20 26 1012.8 1012.9 0.6
25/03:21pm 14.4 9.0 12.3 87 1.1 WNW 32 41 17 22 1013.0 1013.1 0.6
25/03:14pm 14.0 8.0 12.2 89 1.0 WNW 35 44 19 24 1013.0 1013.1 0.6
25/03:00pm 14.5 8.1 12.0 85 1.4 WNW 37 43 20 23 1013.0 1013.1 0.6
25/02:40pm 14.7 7.9 11.8 83 1.6 WNW 39 50 21 27 1013.1 1013.2 0.6
25/02:30pm 14.8 8.0 11.9 83 1.6 NW 39 48 21 26 1013.1 1013.2 0.6
25/02:21pm 14.6 8.6 12.1 85 1.4 NW 35 43 19 23 1013.3 1013.4 0.6
25/02:17pm 14.7 8.7 12.2 85 1.4 NW 35 46 19 25 1013.3 1013.4 0.6
25/02:07pm 14.9 9.7 12.9 88 1.1 WNW 32 41 17 22 1013.5 1013.6 0.6
25/02:00pm 14.3 10.1 12.3 88 1.1 WNW 26 35 14 19 1013.7 1013.8 0.6
25/01:30pm 14.6 10.0 12.3 86 1.3 WNW 28 35 15 19 1014.0 1014.1 0.6
25/01:00pm 14.0 8.9 11.9 87 1.1 WNW 30 37 16 20 1014.4 1014.5 0.6
25/12:40pm 13.8 10.8 12.7 93 0.6 WNW 20 26 11 14 1014.5 1014.6 0.6
25/12:31pm 13.7 10.9 13.1 96 0.3 WNW 20 26 11 14 1014.6 1014.7 0.6
25/12:30pm 13.6 10.7 13.0 96 0.3 WNW 20 26 11 14 1014.6 1014.7 0.6
25/12:00pm 13.0 12.4 11.7 92 0.7 WNW 6 9 3 5 1015.3 1015.4 0.2
25/11:59am 13.1 12.5 11.8 92 0.7 WNW 6 9 3 5 1015.3 1015.4 0.2
25/11:30am 12.9 12.1 11.8 93 0.6 NNW 7 9 4 5 1015.7 1015.8 0.0
25/11:27am 12.8 12.0 11.7 93 0.6 N 7 9 4 5 1015.8 1015.9 0.0
25/11:00am 12.5 11.6 11.2 92 0.7 N 7 9 4 5 1016.2 1016.3 0.0
25/10:30am 12.4 11.5 10.8 90 0.8 NW 6 7 3 4 1016.5 1016.6 0.0
25/10:00am 12.2 12.4 10.6 90 0.8 CALM 0 4 0 2 1016.5 1016.6 0.0
25/09:45am 11.9 11.0 10.8 93 0.6 SSE 6 7 3 4 1016.5 1016.6 0.0
25/09:30am 10.6 9.5 9.8 95 0.4 SSE 6 7 3 4 1016.6 1016.7 0.0
25/09:00am 9.4 8.0 8.9 97 0.2 S 6 7 3 4 1016.7 1016.8 0.0
25/08:33am 8.2 6.0 7.9 98 0.1 S 9 11 5 6 1016.4 1016.5 0.0
25/08:30am 7.9 5.6 7.6 98 0.1 S 9 11 5 6 1016.5 1016.6 0.0
25/08:00am 6.4 3.8 6.1 98 0.1 SSE 9 11 5 6 1016.4 1016.5 0.0
25/07:30am 5.3 2.4 4.9 97 0.2 SSW 9 9 5 5 1016.3 1016.4 0.0
25/07:00am 6.5 5.6 6.2 98 0.1 CALM 0 0 0 0 1016.1 1016.2 0.0
25/06:30am 4.4 3.0 3.7 95 0.3 CALM 0 0 0 0 1015.9 1016.0 0.0
25/06:00am 6.5 4.2 5.9 96 0.3 SSW 7 9 4 5 1015.7 1015.8 0.0
25/05:30am 6.0 3.6 5.3 95 0.3 SSW 7 7 4 4 1015.5 1015.6 0.0
25/05:00am 6.1 3.4 5.4 95 0.3 S 9 11 5 6 1015.2 1015.3 0.0
25/04:30am 6.6 5.6 5.4 92 0.5 CALM 0 0 0 0 1015.3 1015.4 0.0
25/04:00am 7.5 5.6 6.6 94 0.4 SSW 6 9 3 5 1015.3 1015.4 0.0
25/03:30am 7.1 4.8 5.9 92 0.5 SSW 7 9 4 5 1015.3 1015.4 0.0
25/03:00am 8.1 6.1 6.9 92 0.6 SSW 7 11 4 6 1015.3 1015.4 0.0
25/02:30am 8.4 5.7 7.2 92 0.6 WSW 11 11 6 6 1015.4 1015.5 0.0
25/02:00am 7.5 4.9 6.3 92 0.5 SW 9 11 5 6 1015.4 1015.5 0.0
25/01:30am 7.5 5.5 6.1 91 0.6 SSW 6 7 3 4 1015.3 1015.4 0.0
25/01:00am 8.2 6.3 6.8 91 0.6 WSW 6 7 3 4 1015.4 1015.5 0.0
25/12:30am 8.5 6.1 6.8 89 0.8 SW 9 11 5 6 1015.6 1015.7 0.0
25/12:00am 8.8 6.5 7.3 90 0.7 WSW 9 13 5 7 1015.7 1015.8 0.0
 
Date/Time
EST
Temp
°C
App
Temp
°C
Dew
Point
°C
Rel
Hum
%
Delta-T
°C
Wind Press
QNH
hPa
Press
MSL
hPa
Rain since
9am
mm
Dir  Spd
km/h
Gust
km/h
Spd
kts
Gust
kts
24/11:30pm 8.7 6.1 7.6 93 0.5 WSW 11 15 6 8 1015.7 1015.8 0.0
24/11:00pm 8.5 5.0 7.1 91 0.7 WSW 15 19 8 10 1015.6 1015.7 0.0
24/10:30pm 8.7 5.2 7.2 90 0.7 WSW 15 19 8 10 1015.5 1015.6 0.0
24/10:00pm 9.1 5.6 7.1 87 0.9 WSW 15 20 8 11 1015.6 1015.7 0.0
24/09:30pm 8.8 5.5 6.6 86 1.0 WSW 13 17 7 9 1015.6 1015.7 0.0
24/09:00pm 9.3 5.8 7.1 86 1.0 W 15 17 8 9 1015.4 1015.5 0.0
24/08:30pm 9.0 5.7 6.4 84 1.2 W 13 15 7 8 1015.2 1015.3 0.0
24/08:00pm 9.0 6.7 5.7 80 1.5 SW 7 9 4 5 1014.9 1015.0 0.0
24/07:30pm 9.4 7.3 5.8 78 1.6 SW 6 9 3 5 1014.5 1014.6 0.0
24/07:00pm 9.7 6.7 5.9 77 1.7 WSW 11 15 6 8 1014.2 1014.3 0.0
24/06:30pm 10.6 6.7 6.9 78 1.7 W 17 20 9 11 1013.9 1014.0 0.0

Other Formats:

Comma delimited format used in spreadsheet applications
http://www.bom.gov.au/fwo/IDT60801/IDT60801.95960.axf

JavaScript Object Notation format (JSON) in row-major order
http://www.bom.gov.au/fwo/IDT60801/IDT60801.95960.json